createdAt,value
2018-12-06T00:00:22.476Z,47.50
2018-12-06T00:01:22.431Z,47.80
2018-12-06T00:02:22.398Z,48.18
2018-12-06T00:03:22.340Z,48.08
2018-12-06T00:04:22.307Z,48.08
2018-12-06T00:05:22.272Z,48.18
2018-12-06T00:06:22.203Z,48.28
2018-12-06T00:07:22.172Z,47.89
2018-12-06T00:08:22.136Z,48.86
2018-12-06T00:09:22.075Z,48.57
2018-12-06T00:10:22.023Z,48.57
2018-12-06T00:11:21.976Z,49.46
2018-12-06T00:12:21.944Z,49.65
2018-12-06T00:13:21.885Z,49.65
2018-12-06T00:14:21.848Z,49.65
2018-12-06T00:15:21.807Z,49.65
2018-12-06T00:16:21.758Z,49.46
2018-12-06T00:17:21.719Z,49.37
2018-12-06T00:18:21.667Z,49.85
2018-12-06T00:19:21.625Z,50.13
2018-12-06T00:20:21.688Z,50.23
2018-12-06T00:21:21.543Z,50.23
2018-12-06T00:22:21.485Z,51.27
2018-12-06T00:23:21.431Z,51.27
2018-12-06T00:24:21.399Z,50.98
2018-12-06T00:25:21.341Z,51.37
2018-12-06T00:26:21.396Z,51.75
2018-12-06T00:27:21.263Z,52.62
2018-12-06T00:28:21.213Z,51.46
2018-12-06T00:29:21.204Z,51.27
2018-12-06T00:30:21.113Z,52.04
2018-12-06T00:31:21.080Z,51.75
2018-12-06T00:32:21.233Z,52.43
2018-12-06T00:33:20.985Z,52.43
2018-12-06T00:34:20.944Z,52.53
2018-12-06T00:35:20.907Z,52.81
2018-12-06T00:36:20.854Z,53.20
2018-12-06T00:37:20.803Z,53.01
2018-12-06T00:38:20.750Z,53.01
2018-12-06T00:39:20.704Z,52.81
2018-12-06T00:40:20.671Z,52.81
2018-12-06T00:41:20.626Z,52.72
2018-12-06T00:42:20.589Z,52.91
2018-12-06T00:43:20.522Z,53.30
2018-12-06T00:44:20.513Z,52.91
2018-12-06T00:45:20.441Z,53.23
2018-12-06T00:46:20.398Z,53.33
2018-12-06T00:47:20.349Z,54.00
2018-12-06T00:48:20.309Z,53.78
2018-12-06T00:49:20.259Z,52.53
2018-12-06T00:50:20.212Z,52.14
2018-12-06T00:51:20.172Z,52.53
2018-12-06T00:52:20.130Z,53.39
2018-12-06T00:53:20.089Z,53.88
2018-12-06T00:54:20.023Z,53.11
2018-12-06T00:55:19.991Z,53.01
2018-12-06T00:56:19.944Z,53.30
2018-12-06T00:57:19.894Z,53.39
2018-12-06T00:58:19.840Z,53.59
2018-12-06T00:59:19.816Z,53.75
2018-12-06T01:00:19.766Z,54.14
2018-12-06T01:01:19.704Z,54.43
2018-12-06T01:02:19.680Z,54.53
2018-12-06T01:03:19.629Z,54.43
2018-12-06T01:04:19.567Z,54.27
2018-12-06T01:05:19.524Z,54.07
2018-12-06T01:06:19.476Z,54.46
2018-12-06T01:07:19.444Z,53.39
2018-12-06T01:08:19.388Z,52.91
2018-12-06T01:09:19.361Z,53.27
2018-12-06T01:10:19.303Z,53.11
2018-12-06T01:11:19.257Z,53.69
2018-12-06T01:12:19.218Z,53.59
2018-12-06T01:13:19.158Z,53.85
2018-12-06T01:14:19.221Z,54.05
2018-12-06T01:15:19.110Z,52.89
2018-12-06T01:16:19.029Z,51.92
2018-12-06T01:17:18.988Z,51.63
2018-12-06T01:18:18.951Z,51.25
2018-12-06T01:19:18.894Z,51.73
2018-12-06T01:21:18.902Z,50.86
2018-12-06T01:22:18.769Z,51.05
2018-12-06T01:23:18.715Z,50.96
2018-12-06T01:24:18.665Z,51.25
2018-12-06T01:25:18.623Z,51.53
2018-12-06T01:26:18.567Z,51.82
2018-12-06T01:27:18.532Z,51.82
2018-12-06T01:28:18.482Z,51.25
2018-12-06T01:29:18.428Z,51.34
2018-12-06T01:30:18.391Z,51.44
2018-12-06T01:31:18.358Z,51.53
2018-12-06T01:32:18.291Z,52.59
2018-12-06T01:33:18.246Z,52.59
2018-12-06T01:34:18.201Z,52.69
2018-12-06T01:35:18.176Z,53.08
2018-12-06T01:36:18.130Z,53.37
2018-12-06T01:37:18.076Z,53.47
2018-12-06T01:38:18.039Z,53.47
2018-12-06T01:39:17.981Z,53.47
2018-12-06T01:40:17.950Z,53.78
2018-12-06T01:41:17.902Z,53.85
2018-12-06T01:42:17.857Z,53.66
2018-12-06T01:43:17.804Z,53.75
2018-12-06T01:44:17.767Z,53.95
2018-12-06T01:45:17.711Z,53.56
2018-12-06T01:46:17.662Z,53.95
2018-12-06T01:47:17.616Z,54.14
2018-12-06T01:48:17.573Z,54.36
2018-12-06T01:49:17.517Z,54.43
2018-12-06T01:50:17.672Z,54.55
2018-12-06T01:51:17.434Z,54.24
2018-12-06T01:52:17.392Z,54.91
2018-12-06T01:53:17.335Z,54.72
2018-12-06T01:54:17.297Z,55.04
2018-12-06T01:55:17.243Z,55.23
2018-12-06T01:56:17.210Z,55.30
2018-12-06T01:57:17.173Z,55.23
2018-12-06T01:58:17.128Z,55.49
2018-12-06T01:59:17.069Z,55.62
2018-12-06T02:00:17.036Z,55.81
2018-12-06T02:01:16.982Z,56.20
2018-12-06T02:02:16.945Z,56.46
2018-12-06T02:03:16.887Z,56.29
2018-12-06T02:04:16.842Z,57.14
2018-12-06T02:05:16.800Z,57.23
2018-12-06T02:06:16.742Z,56.94
2018-12-06T02:07:16.717Z,57.52
2018-12-06T02:08:16.672Z,57.62
2018-12-06T02:09:16.626Z,58.39
2018-12-06T02:10:16.587Z,58.19
2018-12-06T02:11:16.516Z,58.10
2018-12-06T02:12:16.482Z,58.19
2018-12-06T02:13:16.431Z,58.00
2018-12-06T02:14:16.379Z,58.58
2018-12-06T02:15:16.341Z,58.48
2018-12-06T02:16:16.288Z,58.39
2018-12-06T02:17:16.262Z,57.81
2018-12-06T02:18:16.204Z,57.71
2018-12-06T02:19:16.171Z,57.71
2018-12-06T02:20:16.119Z,58.19
2018-12-06T02:21:16.066Z,57.71
2018-12-06T02:22:16.039Z,58.00
2018-12-06T02:23:15.967Z,58.19
2018-12-06T02:24:15.930Z,58.87
2018-12-06T02:25:15.897Z,58.87
2018-12-06T02:26:15.856Z,58.39
2018-12-06T02:27:15.806Z,59.45
2018-12-06T02:28:15.739Z,60.38
2018-12-06T02:29:15.717Z,61.16
2018-12-06T02:30:15.672Z,60.58
2018-12-06T02:31:15.602Z,61.06
2018-12-06T02:32:15.557Z,61.06
2018-12-06T02:33:15.521Z,61.06
2018-12-06T02:34:15.478Z,60.48
2018-12-06T02:35:15.441Z,60.28
2018-12-06T02:36:15.396Z,60.38
2018-12-06T02:37:15.337Z,61.16
2018-12-06T02:38:15.282Z,60.96
2018-12-06T02:39:15.251Z,60.96
2018-12-06T02:40:15.213Z,61.83
2018-12-06T02:41:15.145Z,62.02
2018-12-06T02:42:15.099Z,61.64
2018-12-06T02:43:15.067Z,61.93
2018-12-06T02:44:15.021Z,61.99
2018-12-06T02:45:14.971Z,61.83
2018-12-06T02:46:14.923Z,62.02
2018-12-06T02:47:14.881Z,60.96
2018-12-06T02:48:14.826Z,60.38
2018-12-06T02:49:14.788Z,61.25
2018-12-06T02:50:14.755Z,60.86
2018-12-06T02:51:14.709Z,61.06
2018-12-06T02:52:14.642Z,62.28
2018-12-06T02:53:14.606Z,63.34
2018-12-06T02:54:14.559Z,62.66
2018-12-06T02:55:14.520Z,62.28
2018-12-06T02:56:14.480Z,62.28
2018-12-06T02:57:14.434Z,62.48
2018-12-06T02:58:14.389Z,63.44
2018-12-06T02:59:14.322Z,63.63
2018-12-06T03:00:14.289Z,63.34
2018-12-06T03:01:14.248Z,64.11
2018-12-06T03:02:14.193Z,63.92
2018-12-06T03:03:14.151Z,63.73
2018-12-06T03:04:14.225Z,63.92
2018-12-06T03:05:14.060Z,64.11
2018-12-06T03:06:14.001Z,64.79
2018-12-06T03:07:13.977Z,65.27
2018-12-06T03:08:13.925Z,66.01
2018-12-06T03:09:13.864Z,66.59
2018-12-06T03:10:13.832Z,66.59
2018-12-06T03:11:13.793Z,66.59
2018-12-06T03:12:13.726Z,66.78
2018-12-06T03:13:13.684Z,66.49
2018-12-06T03:14:13.656Z,66.39
2018-12-06T03:15:13.610Z,66.97
2018-12-06T03:16:13.566Z,66.88
2018-12-06T03:17:13.497Z,67.65
2018-12-06T03:18:13.472Z,66.88
2018-12-06T03:19:13.417Z,66.49
2018-12-06T03:20:13.581Z,66.59
2018-12-06T03:21:13.330Z,66.59
2018-12-06T03:22:13.278Z,66.20
2018-12-06T03:23:13.238Z,66.39
2018-12-06T03:24:13.193Z,66.30
2018-12-06T03:25:13.142Z,67.65
2018-12-06T03:26:13.093Z,68.32
2018-12-06T03:27:13.045Z,67.55
2018-12-06T03:28:12.992Z,67.74
2018-12-06T03:29:12.945Z,67.84
2018-12-06T03:30:12.914Z,67.84
2018-12-06T03:31:12.874Z,67.55
2018-12-06T03:32:12.821Z,67.84
2018-12-06T03:33:12.783Z,67.74
2018-12-06T03:34:12.725Z,68.99
2018-12-06T03:35:12.678Z,68.99
2018-12-06T03:36:12.623Z,68.99
2018-12-06T03:37:12.586Z,68.68
2018-12-06T03:38:12.544Z,68.68
2018-12-06T03:39:12.497Z,69.06
2018-12-06T03:40:12.451Z,69.73
2018-12-06T03:41:12.406Z,69.64
2018-12-06T03:42:12.369Z,69.64
2018-12-06T03:43:12.323Z,69.64
2018-12-06T03:44:12.263Z,69.45
2018-12-06T03:45:12.231Z,69.64
2018-12-06T03:46:12.199Z,69.93
2018-12-06T03:47:12.115Z,70.31
2018-12-06T03:48:12.091Z,70.21
2018-12-06T03:49:12.046Z,70.12
2018-12-06T03:50:11.990Z,70.41
2018-12-06T03:51:11.944Z,70.79
2018-12-06T03:52:11.902Z,70.98
2018-12-06T03:53:11.860Z,71.37
2018-12-06T03:54:11.813Z,71.37
2018-12-06T03:55:11.746Z,70.79
2018-12-06T03:56:11.721Z,70.98
2018-12-06T03:57:11.679Z,70.60
2018-12-06T03:58:11.626Z,71.18
2018-12-06T03:59:11.570Z,71.18
2018-12-06T04:00:11.523Z,70.31
2018-12-06T04:01:11.471Z,70.02
2018-12-06T04:02:11.434Z,70.12
2018-12-06T04:03:11.385Z,69.93
2018-12-06T04:04:11.332Z,70.12
2018-12-06T04:05:11.297Z,70.95
2018-12-06T04:06:11.239Z,70.79
2018-12-06T04:07:11.191Z,71.08
2018-12-06T04:08:11.167Z,71.08
2018-12-06T04:09:11.099Z,71.24
2018-12-06T04:10:11.066Z,71.56
2018-12-06T04:11:11.028Z,71.66
2018-12-06T04:12:10.960Z,71.72
2018-12-06T04:13:10.939Z,71.72
2018-12-06T04:14:10.867Z,72.20
2018-12-06T04:15:10.830Z,71.91
2018-12-06T04:16:10.796Z,72.11
2018-12-06T04:17:10.738Z,72.11
2018-12-06T04:18:10.692Z,71.72
2018-12-06T04:19:10.658Z,71.62
2018-12-06T04:20:10.591Z,71.91
2018-12-06T04:21:10.565Z,72.11
2018-12-06T04:22:10.509Z,72.11
2018-12-06T04:23:10.453Z,72.59
2018-12-06T04:24:10.418Z,71.91
2018-12-06T04:25:10.367Z,72.39
2018-12-06T04:26:10.335Z,72.78
2018-12-06T04:27:10.275Z,72.88
2018-12-06T04:28:10.228Z,72.78
2018-12-06T04:29:10.176Z,72.97
2018-12-06T04:30:10.127Z,73.84
2018-12-06T04:31:10.081Z,73.99
2018-12-06T04:32:10.058Z,74.38
2018-12-06T04:33:09.990Z,74.32
2018-12-06T04:34:09.957Z,74.22
2018-12-06T04:35:09.897Z,74.32
2018-12-06T04:36:09.865Z,73.46
2018-12-06T04:37:09.816Z,73.74
2018-12-06T04:38:09.756Z,72.97
2018-12-06T04:39:09.711Z,73.07
2018-12-06T04:40:09.676Z,72.11
2018-12-06T04:41:09.630Z,72.20
2018-12-06T04:42:09.592Z,72.01
2018-12-06T04:43:09.537Z,72.20
2018-12-06T04:44:09.478Z,72.78
2018-12-06T04:45:09.445Z,73.16
2018-12-06T04:46:09.404Z,73.74
2018-12-06T04:47:09.341Z,73.84
2018-12-06T04:48:09.313Z,74.03
2018-12-06T04:49:09.260Z,73.36
2018-12-06T04:50:09.221Z,73.84
2018-12-06T04:51:09.153Z,74.90
2018-12-06T04:52:09.129Z,74.38
2018-12-06T04:53:09.083Z,75.05
2018-12-06T04:54:09.065Z,74.86
2018-12-06T04:55:08.980Z,74.86
2018-12-06T04:56:08.934Z,75.15
2018-12-06T04:57:08.885Z,75.54
2018-12-06T04:58:08.842Z,75.34
2018-12-06T04:59:08.803Z,75.44
2018-12-06T05:00:08.757Z,75.34
2018-12-06T05:01:08.689Z,75.34
2018-12-06T05:02:08.655Z,75.63
2018-12-06T05:03:08.609Z,75.92
2018-12-06T05:04:08.557Z,76.01
2018-12-06T05:05:08.712Z,75.73
2018-12-06T05:06:08.469Z,76.21
2018-12-06T05:07:08.431Z,75.82
2018-12-06T05:08:08.385Z,75.54
2018-12-06T05:09:08.329Z,75.54
2018-12-06T05:10:08.283Z,75.44
2018-12-06T05:11:08.232Z,75.34
2018-12-06T05:12:08.190Z,75.54
2018-12-06T05:13:08.154Z,75.44
2018-12-06T05:14:08.096Z,75.34
2018-12-06T05:15:08.046Z,75.44
2018-12-06T05:16:08.005Z,75.54
2018-12-06T05:17:07.952Z,75.92
2018-12-06T05:18:07.907Z,76.21
2018-12-06T05:19:07.864Z,75.92
2018-12-06T05:20:07.826Z,76.21
2018-12-06T05:21:07.771Z,75.73
2018-12-06T05:22:07.733Z,75.54
2018-12-06T05:23:07.695Z,75.54
2018-12-06T05:24:07.627Z,75.73
2018-12-06T05:25:07.580Z,76.01
2018-12-06T05:26:07.538Z,75.82
2018-12-06T05:27:07.500Z,75.63
2018-12-06T05:28:07.453Z,75.82
2018-12-06T05:29:07.394Z,76.21
2018-12-06T05:30:08.466Z,75.54
2018-12-06T05:31:07.301Z,75.92
2018-12-06T05:32:07.254Z,76.11
2018-12-06T05:33:07.199Z,76.11
2018-12-06T05:34:07.162Z,76.88
2018-12-06T05:35:07.127Z,76.31
2018-12-06T05:36:07.072Z,77.08
2018-12-06T05:37:07.021Z,77.56
2018-12-06T05:38:06.966Z,77.17
2018-12-06T05:39:07.026Z,76.88
2018-12-06T05:40:06.894Z,76.88
2018-12-06T05:41:06.827Z,77.46
2018-12-06T05:42:06.804Z,77.17
2018-12-06T05:43:06.733Z,77.46
2018-12-06T05:44:06.697Z,77.26
2018-12-06T05:45:06.648Z,77.46
2018-12-06T05:46:06.614Z,77.65
2018-12-06T05:47:06.561Z,77.46
2018-12-06T05:48:06.508Z,77.75
2018-12-06T05:49:06.464Z,78.42
2018-12-06T05:50:06.409Z,78.33
2018-12-06T05:51:06.360Z,78.33
2018-12-06T05:52:06.321Z,79.00
2018-12-06T05:53:06.276Z,78.71
2018-12-06T05:54:06.241Z,79.19
2018-12-06T05:55:06.184Z,79.28
2018-12-06T05:56:06.126Z,79.44
2018-12-06T05:57:06.088Z,79.28
2018-12-06T05:58:06.060Z,79.00
2018-12-06T05:59:05.995Z,79.38
2018-12-06T06:00:05.961Z,79.96
2018-12-06T06:01:05.893Z,79.96
2018-12-06T06:02:05.847Z,79.92
2018-12-06T06:03:05.813Z,80.44
2018-12-06T06:04:05.764Z,80.63
2018-12-06T06:05:05.728Z,80.40
2018-12-06T06:06:05.669Z,81.02
2018-12-06T06:07:05.613Z,80.92
2018-12-06T06:08:05.579Z,81.70
2018-12-06T06:09:05.541Z,81.12
2018-12-06T06:10:05.492Z,81.79
2018-12-06T06:11:05.428Z,82.37
2018-12-06T06:12:05.400Z,82.17
2018-12-06T06:13:05.341Z,82.65
2018-12-06T06:14:05.299Z,82.71
2018-12-06T06:15:05.252Z,83.04
2018-12-06T06:16:05.213Z,83.19
2018-12-06T06:17:05.161Z,83.33
2018-12-06T06:18:05.112Z,83.42
2018-12-06T06:19:05.059Z,83.48
2018-12-06T06:20:05.006Z,84.63
2018-12-06T06:21:04.969Z,85.11
2018-12-06T06:22:04.922Z,84.83
2018-12-06T06:23:04.875Z,84.63
2018-12-06T06:24:04.834Z,85.21
2018-12-06T06:25:04.786Z,85.50
2018-12-06T06:26:04.726Z,85.40
2018-12-06T06:27:04.691Z,85.78
2018-12-06T06:28:04.645Z,85.88
2018-12-06T06:29:04.588Z,86.46
2018-12-06T06:30:04.563Z,86.36
2018-12-06T06:31:04.494Z,86.46
2018-12-06T06:32:04.457Z,86.56
2018-12-06T06:33:04.479Z,86.75
2018-12-06T06:34:04.360Z,86.94
2018-12-06T06:35:04.319Z,87.13
2018-12-06T06:36:04.271Z,87.23
2018-12-06T06:37:04.219Z,87.23
2018-12-06T06:38:04.177Z,87.23
2018-12-06T06:39:04.129Z,87.33
2018-12-06T06:40:04.092Z,86.65
2018-12-06T06:41:04.045Z,86.46
2018-12-06T06:42:03.985Z,85.78
2018-12-06T06:43:03.953Z,85.31
2018-12-06T06:44:03.905Z,85.21
2018-12-06T06:45:03.838Z,85.78
2018-12-06T06:46:03.790Z,85.21
2018-12-06T06:47:03.756Z,85.11
2018-12-06T06:48:03.710Z,84.25
2018-12-06T06:49:03.666Z,83.83
2018-12-06T06:50:03.627Z,83.39
2018-12-06T06:51:03.577Z,82.67
2018-12-06T06:52:03.530Z,82.86
2018-12-06T06:53:03.462Z,83.44
2018-12-06T06:54:03.430Z,83.34
2018-12-06T06:55:03.390Z,83.06
2018-12-06T06:56:03.343Z,83.92
2018-12-06T06:57:03.283Z,84.50
2018-12-06T06:58:03.241Z,84.98
2018-12-06T06:59:03.190Z,85.17
2018-12-06T07:00:03.135Z,85.46
2018-12-06T07:01:03.096Z,85.75
2018-12-06T07:02:03.053Z,86.32
2018-12-06T07:03:03.002Z,86.42
2018-12-06T07:04:02.954Z,87.57
2018-12-06T07:05:02.912Z,87.48
2018-12-06T07:06:02.865Z,87.96
2018-12-06T07:07:02.827Z,88.34
2018-12-06T07:08:02.772Z,88.06
2018-12-06T07:09:02.734Z,88.24
2018-12-06T07:10:02.673Z,87.86
2018-12-06T07:11:02.626Z,88.63
2018-12-06T07:12:02.666Z,88.63
2018-12-06T07:13:02.543Z,89.01
2018-12-06T07:14:02.484Z,89.21
2018-12-06T07:15:02.450Z,89.21
2018-12-06T07:16:02.396Z,89.30
2018-12-06T07:17:04.060Z,89.59
2018-12-06T07:18:02.310Z,90.17
2018-12-06T07:19:02.249Z,90.36
2018-12-06T07:20:02.215Z,90.75
2018-12-06T07:21:02.147Z,91.32
2018-12-06T07:22:02.108Z,91.71
2018-12-06T07:23:02.062Z,91.80
2018-12-06T07:24:02.027Z,91.71
2018-12-06T07:25:01.980Z,92.19
2018-12-06T07:26:01.925Z,93.44
2018-12-06T07:27:01.894Z,93.53
2018-12-06T07:28:01.818Z,93.82
2018-12-06T07:29:01.783Z,94.11
2018-12-06T07:30:01.744Z,94.01
2018-12-06T07:31:01.690Z,94.40
2018-12-06T07:32:01.637Z,94.68
2018-12-06T07:33:01.590Z,95.07
2018-12-06T07:34:01.536Z,95.55
2018-12-06T07:35:01.500Z,96.13
2018-12-06T07:36:01.449Z,96.32
2018-12-06T07:37:01.394Z,96.51
2018-12-06T07:38:01.355Z,96.80
2018-12-06T07:39:01.308Z,97.19
2018-12-06T07:40:01.252Z,97.81
2018-12-06T07:41:01.208Z,98.68
2018-12-06T07:42:01.171Z,99.06
2018-12-06T07:43:01.111Z,99.54
2018-12-06T07:44:01.077Z,99.99
2018-12-06T07:45:01.029Z,99.99
2018-12-06T07:46:00.991Z,99.99
2018-12-06T07:47:00.931Z,99.99
2018-12-06T07:48:00.875Z,99.99
2018-12-06T07:49:00.827Z,99.99
2018-12-06T07:50:00.802Z,99.99
2018-12-06T07:51:00.748Z,99.99
2018-12-06T07:52:00.700Z,99.99
2018-12-06T07:53:00.660Z,99.99
2018-12-06T07:54:00.605Z,99.99
2018-12-06T07:55:00.557Z,99.99
2018-12-06T07:56:00.511Z,99.99
2018-12-06T07:57:00.450Z,99.99
2018-12-06T07:58:00.411Z,99.99
2018-12-06T07:59:00.382Z,99.99
2018-12-06T08:00:00.316Z,99.99
2018-12-06T08:01:00.283Z,99.99
2018-12-06T08:02:00.237Z,99.99
2018-12-06T08:03:00.166Z,99.99
2018-12-06T08:04:00.127Z,99.99
2018-12-06T08:05:00.082Z,99.99
2018-12-06T08:06:00.025Z,99.99
2018-12-06T08:06:59.997Z,99.99
2018-12-06T08:07:59.942Z,99.99
2018-12-06T08:08:59.890Z,99.99
2018-12-06T08:09:59.842Z,99.99
2018-12-06T08:10:59.796Z,99.99
2018-12-06T08:11:59.748Z,99.99
2018-12-06T08:12:59.705Z,99.99
2018-12-06T08:13:59.666Z,99.99
2018-12-06T08:14:59.606Z,99.99
2018-12-06T08:15:59.550Z,99.99
2018-12-06T08:16:59.511Z,99.99
2018-12-06T08:17:59.456Z,99.99
2018-12-06T08:18:59.430Z,99.99
2018-12-06T08:19:59.384Z,99.99
2018-12-06T08:20:59.329Z,99.99
2018-12-06T08:21:59.280Z,99.99
2018-12-06T08:22:59.240Z,99.99
2018-12-06T08:23:59.185Z,99.99
2018-12-06T08:24:59.139Z,99.99
2018-12-06T08:25:59.102Z,99.99
2018-12-06T08:26:59.052Z,99.99
2018-12-06T08:27:58.992Z,99.99
2018-12-06T08:28:58.936Z,99.99
2018-12-06T08:29:58.913Z,99.99
2018-12-06T08:30:58.863Z,99.99
2018-12-06T08:31:58.803Z,99.99
2018-12-06T08:32:58.755Z,99.99
2018-12-06T08:34:05.897Z,99.99
2018-12-06T08:34:58.653Z,99.99
2018-12-06T08:35:58.614Z,99.99
2018-12-06T08:36:58.562Z,99.99
2018-12-06T08:37:58.520Z,99.99
2018-12-06T08:38:58.466Z,99.99
2018-12-06T08:39:58.426Z,99.99
2018-12-06T08:40:58.371Z,99.99
2018-12-06T08:41:58.338Z,99.99
2018-12-06T08:42:58.288Z,99.99
2018-12-06T08:43:58.237Z,99.99
2018-12-06T08:44:58.202Z,99.99
2018-12-06T08:45:58.147Z,99.93
2018-12-06T08:46:58.108Z,99.64
2018-12-06T08:47:58.062Z,99.59
2018-12-06T08:49:02.945Z,99.01
2018-12-06T08:49:57.969Z,99.21
2018-12-06T08:50:57.908Z,98.92
2018-12-06T08:51:57.875Z,99.30
2018-12-06T08:52:57.820Z,98.72
2018-12-06T08:53:57.781Z,98.92
2018-12-06T08:54:57.734Z,99.01
2018-12-06T08:55:57.687Z,99.73
2018-12-06T08:56:57.640Z,99.26
2018-12-06T08:57:57.586Z,99.73
2018-12-06T08:58:57.547Z,99.49
2018-12-06T08:59:57.500Z,98.72
2018-12-06T09:00:57.453Z,98.10
2018-12-06T09:01:57.398Z,97.04
2018-12-06T09:02:57.354Z,96.27
2018-12-06T09:03:57.321Z,96.37
2018-12-06T09:04:57.246Z,95.31
2018-12-06T09:05:57.220Z,95.21
2018-12-06T09:06:57.166Z,95.21
2018-12-06T09:07:57.130Z,94.64
2018-12-06T09:08:57.065Z,94.54
2018-12-06T09:09:57.101Z,94.92
2018-12-06T09:10:56.991Z,95.21
2018-12-06T09:11:56.925Z,95.31
2018-12-06T09:12:56.896Z,95.12
2018-12-06T09:13:56.840Z,94.64
2018-12-06T09:14:56.786Z,93.72
2018-12-06T09:15:56.736Z,92.47
2018-12-06T09:16:56.710Z,92.37
2018-12-06T09:17:56.666Z,92.37
2018-12-06T09:18:56.610Z,92.08
2018-12-06T09:19:56.551Z,91.99
2018-12-06T09:20:56.511Z,92.18
2018-12-06T09:21:56.464Z,93.00
2018-12-06T09:22:56.411Z,93.33
2018-12-06T09:23:56.396Z,93.67
2018-12-06T09:24:56.350Z,94.15
2018-12-06T09:25:56.281Z,93.87
2018-12-06T09:26:58.964Z,93.77
2018-12-06T09:27:56.181Z,94.15
2018-12-06T09:28:56.159Z,93.87
2018-12-06T09:29:56.203Z,93.48
2018-12-06T09:31:01.066Z,93.43
2018-12-06T09:31:56.002Z,94.20
2018-12-06T09:32:55.968Z,93.87
2018-12-06T09:33:55.906Z,94.15
2018-12-06T09:34:55.865Z,94.06
2018-12-06T09:35:55.832Z,93.52
2018-12-06T09:36:56.034Z,93.33
2018-12-06T09:37:55.728Z,93.04
2018-12-06T09:38:55.670Z,92.47
2018-12-06T09:39:55.641Z,91.83
2018-12-06T09:40:55.577Z,92.13
2018-12-06T09:41:55.544Z,90.97
2018-12-06T09:42:55.799Z,90.39
2018-12-06T09:43:55.441Z,89.72
2018-12-06T09:44:55.401Z,87.88
2018-12-06T09:45:55.348Z,87.26
2018-12-06T09:46:55.323Z,87.93
2018-12-06T09:47:55.272Z,87.06
2018-12-06T09:48:55.323Z,86.82
2018-12-06T09:49:55.177Z,85.56
2018-12-06T09:50:55.213Z,83.48
2018-12-06T09:51:55.080Z,82.61
2018-12-06T09:52:55.040Z,82.51
2018-12-06T09:53:54.989Z,82.90
2018-12-06T09:54:54.945Z,82.75
2018-12-06T09:55:54.901Z,82.46
2018-12-06T09:56:54.857Z,81.24
2018-12-06T09:57:54.814Z,80.86
2018-12-06T09:58:54.775Z,78.64
2018-12-06T09:59:54.711Z,78.15
2018-12-06T10:00:54.678Z,76.84
2018-12-06T10:01:54.628Z,76.20
2018-12-06T10:02:54.590Z,74.69
2018-12-06T10:03:54.531Z,72.89
2018-12-06T10:04:54.506Z,72.50
2018-12-06T10:05:54.455Z,72.21
2018-12-06T10:06:54.412Z,72.21
2018-12-06T10:07:54.363Z,72.11
2018-12-06T10:08:54.320Z,72.83
2018-12-06T10:09:54.275Z,71.18
2018-12-06T10:10:54.224Z,70.09
2018-12-06T10:11:54.191Z,67.11
2018-12-06T10:12:54.144Z,65.20
2018-12-06T10:13:54.114Z,63.29
2018-12-06T10:14:54.070Z,64.33
2018-12-06T10:15:54.016Z,63.95
2018-12-06T10:16:53.966Z,64.30
2018-12-06T10:17:53.933Z,64.69
2018-12-06T10:18:53.902Z,66.40
2018-12-06T10:19:53.847Z,67.66
2018-12-06T10:20:53.796Z,68.12
2018-12-06T10:21:53.767Z,69.08
2018-12-06T10:22:53.726Z,69.57
2018-12-06T10:23:53.670Z,69.05
2018-12-06T10:24:53.637Z,68.18
2018-12-06T10:25:53.607Z,68.08
2018-12-06T10:26:53.552Z,69.15
2018-12-06T10:27:53.502Z,70.08
2018-12-06T10:28:53.468Z,70.34
2018-12-06T10:29:53.446Z,71.11
2018-12-06T10:30:53.491Z,71.75
2018-12-06T10:31:53.352Z,73.01
2018-12-06T10:32:53.304Z,73.84
2018-12-06T10:33:53.267Z,74.32
2018-12-06T10:34:53.649Z,74.04
2018-12-06T10:35:53.168Z,74.32
2018-12-06T10:36:53.379Z,74.71
2018-12-06T10:37:53.082Z,75.58
2018-12-06T10:38:53.032Z,75.00
2018-12-06T10:39:52.995Z,74.90
2018-12-06T10:40:52.941Z,75.04
2018-12-06T10:41:52.906Z,74.55
2018-12-06T10:42:53.179Z,73.78
2018-12-06T10:43:52.823Z,73.68
2018-12-06T10:44:52.775Z,74.69
2018-12-06T10:45:52.735Z,74.30
2018-12-06T10:46:52.678Z,71.78
2018-12-06T10:47:52.643Z,71.30
2018-12-06T10:48:52.853Z,71.98
2018-12-06T10:49:52.650Z,71.44
2018-12-06T10:50:52.504Z,71.14
2018-12-06T10:51:52.468Z,70.86
2018-12-06T10:52:52.441Z,70.66
2018-12-06T10:53:52.392Z,71.24
2018-12-06T10:54:52.577Z,71.50
2018-12-06T10:55:52.294Z,72.56
2018-12-06T10:56:52.254Z,72.62
2018-12-06T10:57:52.212Z,73.20
2018-12-06T10:58:52.164Z,74.07
2018-12-06T10:59:52.129Z,72.42
2018-12-06T11:00:57.148Z,71.52
2018-12-06T11:01:52.033Z,72.58
2018-12-06T11:02:52.005Z,72.30
2018-12-06T11:03:51.931Z,71.26
2018-12-06T11:04:51.909Z,71.56
2018-12-06T11:05:51.857Z,71.11
2018-12-06T11:06:52.212Z,71.78
2018-12-06T11:07:51.766Z,71.50
2018-12-06T11:08:51.734Z,70.72
2018-12-06T11:09:51.678Z,69.75
2018-12-06T11:10:51.645Z,69.56
2018-12-06T11:11:51.600Z,68.69
2018-12-06T11:12:51.551Z,70.20
2018-12-06T11:13:51.495Z,71.36
2018-12-06T11:14:51.453Z,71.66
2018-12-06T11:15:51.405Z,71.56
2018-12-06T11:16:51.364Z,70.62
2018-12-06T11:17:51.325Z,70.59
2018-12-06T11:18:51.372Z,70.62
2018-12-06T11:19:51.223Z,70.43
2018-12-06T11:20:51.191Z,69.46
2018-12-06T11:21:51.135Z,69.82
2018-12-06T11:22:51.112Z,70.62
2018-12-06T11:23:51.059Z,70.62
2018-12-06T11:24:51.211Z,70.04
2018-12-06T11:25:50.957Z,69.31
2018-12-06T11:26:50.928Z,69.01
2018-12-06T11:27:50.894Z,69.50
2018-12-06T11:28:50.824Z,68.53
2018-12-06T11:29:50.781Z,68.24
2018-12-06T11:30:50.951Z,67.08
2018-12-06T11:31:50.704Z,66.98
2018-12-06T11:32:50.660Z,68.82
2018-12-06T11:33:50.618Z,68.73
2018-12-06T11:34:50.566Z,68.82
2018-12-06T11:35:50.537Z,69.50
2018-12-06T11:36:50.486Z,68.37
2018-12-06T11:37:50.446Z,68.56
2018-12-06T11:38:50.397Z,66.63
2018-12-06T11:39:50.349Z,66.82
2018-12-06T11:40:50.323Z,66.92
2018-12-06T11:41:50.263Z,66.24
2018-12-06T11:42:50.267Z,66.34
2018-12-06T11:43:50.178Z,68.08
2018-12-06T11:44:50.148Z,67.30
2018-12-06T11:45:50.076Z,67.30
2018-12-06T11:46:50.051Z,67.11
2018-12-06T11:47:49.985Z,66.63
2018-12-06T11:48:49.963Z,66.47
2018-12-06T11:49:49.908Z,66.66
2018-12-06T11:50:49.866Z,65.82
2018-12-06T11:51:49.828Z,66.69
2018-12-06T11:52:49.787Z,64.27
2018-12-06T11:53:49.735Z,65.69
2018-12-06T11:54:49.897Z,64.04
2018-12-06T11:55:49.648Z,64.53
2018-12-06T11:56:49.603Z,64.01
2018-12-06T11:57:49.554Z,65.72
2018-12-06T11:58:49.516Z,66.30
2018-12-06T11:59:49.482Z,67.05
2018-12-06T12:00:49.515Z,67.82
2018-12-06T12:01:49.391Z,68.59
2018-12-06T12:02:49.339Z,67.08
2018-12-06T12:03:49.294Z,66.60
2018-12-06T12:04:49.238Z,66.60
2018-12-06T12:05:49.217Z,66.92
2018-12-06T12:06:49.349Z,66.43
2018-12-06T12:07:49.114Z,65.66
2018-12-06T12:08:49.084Z,65.47
2018-12-06T12:09:49.025Z,65.01
2018-12-06T12:10:48.980Z,64.53
2018-12-06T12:11:48.936Z,63.37
2018-12-06T12:12:48.933Z,63.46
2018-12-06T12:13:48.862Z,64.62
2018-12-06T12:14:48.809Z,63.78
2018-12-06T12:15:48.773Z,63.01
2018-12-06T12:16:48.723Z,62.62
2018-12-06T12:17:48.677Z,63.10
2018-12-06T12:18:48.727Z,62.91
2018-12-06T12:19:48.592Z,62.91
2018-12-06T12:20:48.547Z,63.07
2018-12-06T12:21:48.498Z,65.30
2018-12-06T12:22:48.445Z,65.11
2018-12-06T12:23:48.409Z,63.46
2018-12-06T12:24:48.385Z,62.91
2018-12-06T12:25:48.336Z,63.04
2018-12-06T12:26:48.292Z,62.46
2018-12-06T12:27:48.734Z,61.32
2018-12-06T12:28:48.197Z,61.84
2018-12-06T12:29:48.167Z,61.04
2018-12-06T12:30:48.101Z,59.48
2018-12-06T12:31:48.050Z,60.55
2018-12-06T12:32:48.006Z,61.04
2018-12-06T12:33:47.994Z,60.74
2018-12-06T12:34:47.959Z,61.32
2018-12-06T12:35:47.895Z,60.91
2018-12-06T12:36:47.952Z,60.52
2018-12-06T12:37:47.799Z,60.81
2018-12-06T12:38:47.795Z,61.39
2018-12-06T12:39:47.714Z,59.94
2018-12-06T12:40:47.670Z,59.77
2018-12-06T12:41:47.612Z,58.31
2018-12-06T12:42:47.590Z,58.73
2018-12-06T12:43:47.537Z,58.54
2018-12-06T12:44:47.490Z,59.22
2018-12-06T12:45:47.440Z,60.19
2018-12-06T12:46:47.416Z,59.51
2018-12-06T12:47:47.363Z,59.90
2018-12-06T12:48:47.508Z,56.96
2018-12-06T12:49:47.264Z,58.03
2018-12-06T12:50:47.224Z,58.51
2018-12-06T12:51:47.190Z,57.93
2018-12-06T12:52:47.137Z,57.54